Ozery, Russia
Current Conditions -  °F | °C
As of 6:00 PM on Thursday 30 Oct 2014 (Local Time) from UUDD Reporting Station
Scattered Clouds Scattered Clouds  
Wind Chill: 34°   Ceiling: Unl
Heat Index: 39°   Visibility: 4mi
Dew Point: 25°   Wind: 7mph
Humidity: 56%   Direction: 200°SSW
Pressure: 30.15"   Gusts: NA
Location:  54.85°N, 38.55°E
Report Text: UUDD 301500Z 20003MPS 6000 SCT100 04/M04 Q1021 6401009514010095 NOSIG
Loading
Personal Weather Stations






























Interactive Weather Map
Tropical Storm Tracking
New forecast layout! Learn more

10-Day Weather Forecast

Advertisements
Track Severe Weather on mobile